createdAt,value
2023-05-14T00:00:47.253Z,65.10
2023-05-14T00:03:13.803Z,64.40
2023-05-14T00:05:40.338Z,64.60
2023-05-14T00:08:06.915Z,64.70
2023-05-14T00:10:33.313Z,64.70
2023-05-14T00:12:59.734Z,64.80
2023-05-14T00:15:26.164Z,64.80
2023-05-14T00:17:52.728Z,64.80
2023-05-14T00:20:19.212Z,64.80
2023-05-14T00:22:45.892Z,64.90
2023-05-14T00:25:12.279Z,65.00
2023-05-14T00:27:38.669Z,65.30
2023-05-14T00:30:05.188Z,65.40
2023-05-14T00:32:31.625Z,65.50
2023-05-14T00:34:58.077Z,65.60
2023-05-14T00:37:24.509Z,65.80
2023-05-14T00:39:50.947Z,66.00
2023-05-14T00:42:17.386Z,66.20
2023-05-14T00:44:43.828Z,66.20
2023-05-14T00:47:10.272Z,66.30
2023-05-14T00:49:36.855Z,66.40
2023-05-14T00:52:03.484Z,66.60
2023-05-14T00:54:29.861Z,66.70
2023-05-14T00:56:56.296Z,66.80
2023-05-14T00:59:22.754Z,67.10
2023-05-14T01:01:49.132Z,67.10
2023-05-14T01:04:15.853Z,67.30
2023-05-14T01:06:42.243Z,67.30
2023-05-14T01:09:08.634Z,67.20
2023-05-14T01:11:35.055Z,67.20
2023-05-14T01:14:01.530Z,67.50
2023-05-14T01:16:27.920Z,67.50
2023-05-14T01:18:54.433Z,67.50
2023-05-14T01:21:20.851Z,67.40
2023-05-14T01:23:47.258Z,67.50
2023-05-14T01:26:13.681Z,67.50
2023-05-14T01:28:40.132Z,67.50
2023-05-14T01:31:06.861Z,67.40
2023-05-14T01:33:33.264Z,67.40
2023-05-14T01:35:59.743Z,67.60
2023-05-14T01:38:26.224Z,67.90
2023-05-14T01:40:52.656Z,67.90
2023-05-14T01:43:19.141Z,67.90
2023-05-14T01:45:45.866Z,67.90
2023-05-14T01:48:12.420Z,67.80
2023-05-14T01:50:38.847Z,67.90
2023-05-14T01:53:05.304Z,68.00
2023-05-14T01:55:31.770Z,68.10
2023-05-14T01:57:58.193Z,68.30
2023-05-14T02:00:24.739Z,68.60
2023-05-14T02:02:51.465Z,68.60
2023-05-14T02:05:17.959Z,68.60
2023-05-14T02:07:44.404Z,68.80
2023-05-14T02:10:10.850Z,69.00
2023-05-14T02:12:37.246Z,69.30
2023-05-14T02:15:03.707Z,69.30
2023-05-14T02:17:30.138Z,69.10
2023-05-14T02:19:56.607Z,69.00
2023-05-14T02:22:23.036Z,69.10
2023-05-14T02:24:49.468Z,69.10
2023-05-14T02:27:15.966Z,69.20
2023-05-14T02:29:42.392Z,69.20
2023-05-14T02:32:08.849Z,69.20
2023-05-14T02:34:35.249Z,69.20
2023-05-14T02:37:01.663Z,69.20
2023-05-14T02:39:28.029Z,69.30
2023-05-14T02:41:54.430Z,69.30
2023-05-14T02:44:20.843Z,69.30
2023-05-14T02:46:47.276Z,69.40
2023-05-14T02:49:13.734Z,69.40
2023-05-14T02:51:40.171Z,69.50
2023-05-14T02:54:06.755Z,69.80
2023-05-14T02:56:33.191Z,70.10
2023-05-14T02:58:59.610Z,70.50
2023-05-14T03:01:26.398Z,70.60
2023-05-14T03:03:53.423Z,70.50
2023-05-14T03:06:19.889Z,70.60
2023-05-14T03:08:46.321Z,70.60
2023-05-14T03:11:12.770Z,70.70
2023-05-14T03:13:39.164Z,70.90
2023-05-14T03:16:05.611Z,70.90
2023-05-14T03:18:32.048Z,71.00
2023-05-14T03:20:58.517Z,71.00
2023-05-14T03:23:24.900Z,70.90
2023-05-14T03:25:51.314Z,70.70
2023-05-14T03:28:17.725Z,70.60
2023-05-14T03:30:44.320Z,70.60
2023-05-14T03:33:10.874Z,70.70
2023-05-14T03:35:37.273Z,70.80
2023-05-14T03:38:03.702Z,70.90
2023-05-14T03:40:30.148Z,71.00
2023-05-14T03:42:56.553Z,71.20
2023-05-14T03:45:22.961Z,71.30
2023-05-14T03:47:49.524Z,71.50
2023-05-14T03:50:16.012Z,71.60
2023-05-14T03:52:42.463Z,71.70
2023-05-14T03:55:08.852Z,71.60
2023-05-14T03:57:35.273Z,71.70
2023-05-14T04:00:01.727Z,71.80
2023-05-14T04:02:28.225Z,71.90
2023-05-14T04:04:54.751Z,71.80
2023-05-14T04:07:21.164Z,71.80
2023-05-14T04:09:47.644Z,71.70
2023-05-14T04:12:14.141Z,71.70
2023-05-14T04:14:40.517Z,71.70
2023-05-14T04:17:06.970Z,71.70
2023-05-14T04:19:33.366Z,71.70
2023-05-14T04:21:59.819Z,71.70
2023-05-14T04:24:26.228Z,71.50
2023-05-14T04:26:52.685Z,71.80
2023-05-14T04:29:19.114Z,72.40
2023-05-14T04:31:46.044Z,72.50
2023-05-14T04:34:12.482Z,72.60
2023-05-14T04:36:38.868Z,72.60
2023-05-14T04:39:05.263Z,72.60
2023-05-14T04:41:31.731Z,72.60
2023-05-14T04:43:58.272Z,72.60
2023-05-14T04:46:24.744Z,72.50
2023-05-14T04:48:51.201Z,72.40
2023-05-14T04:51:17.668Z,72.40
2023-05-14T04:53:44.054Z,72.30
2023-05-14T04:56:10.463Z,72.30
2023-05-14T04:58:36.960Z,72.30
2023-05-14T05:01:03.539Z,72.40
2023-05-14T05:03:30.027Z,72.50
2023-05-14T05:05:56.405Z,72.50
2023-05-14T05:08:22.786Z,72.50
2023-05-14T05:10:49.252Z,72.60
2023-05-14T05:13:15.957Z,72.70
2023-05-14T05:15:42.399Z,72.90
2023-05-14T05:18:08.814Z,73.10
2023-05-14T05:20:35.218Z,73.20
2023-05-14T05:23:01.623Z,73.30
2023-05-14T05:25:28.086Z,73.40
2023-05-14T05:27:54.474Z,73.50
2023-05-14T05:30:20.863Z,73.50
2023-05-14T05:32:47.302Z,73.50
2023-05-14T05:35:13.726Z,73.50
2023-05-14T05:37:40.143Z,73.40
2023-05-14T05:40:06.895Z,73.30
2023-05-14T05:42:33.339Z,73.50
2023-05-14T05:44:59.793Z,73.60
2023-05-14T05:47:26.312Z,73.60
2023-05-14T05:49:52.772Z,73.60
2023-05-14T05:52:19.146Z,73.60
2023-05-14T05:54:45.704Z,73.50
2023-05-14T05:57:12.133Z,73.40
2023-05-14T05:59:38.540Z,74.20
2023-05-14T06:02:05.020Z,73.50
2023-05-14T06:04:31.524Z,73.50
2023-05-14T06:06:57.954Z,73.50
2023-05-14T06:09:24.412Z,73.40
2023-05-14T06:11:50.781Z,73.40
2023-05-14T06:14:17.171Z,73.80
2023-05-14T06:16:43.583Z,74.20
2023-05-14T06:19:10.077Z,74.50
2023-05-14T06:21:36.929Z,74.60
2023-05-14T06:24:03.514Z,74.80
2023-05-14T06:26:29.973Z,74.90
2023-05-14T06:28:56.387Z,75.20
2023-05-14T06:31:22.868Z,75.40
2023-05-14T06:33:49.277Z,75.50
2023-05-14T06:36:15.998Z,75.40
2023-05-14T06:38:42.405Z,75.90
2023-05-14T06:41:08.797Z,75.20
2023-05-14T06:43:35.169Z,75.10
2023-05-14T06:46:01.586Z,75.00
2023-05-14T06:48:28.132Z,75.40
2023-05-14T06:50:54.608Z,75.40
2023-05-14T06:53:21.015Z,75.50
2023-05-14T06:55:47.482Z,75.40
2023-05-14T06:58:13.853Z,75.60
2023-05-14T07:00:40.234Z,75.70
2023-05-14T07:03:06.990Z,75.60
2023-05-14T07:05:33.442Z,75.60
2023-05-14T07:07:59.874Z,75.10
2023-05-14T07:10:26.429Z,74.60
2023-05-14T07:12:52.970Z,74.00
2023-05-14T07:15:19.446Z,73.40
2023-05-14T07:17:46.116Z,73.70
2023-05-14T07:20:12.582Z,72.70
2023-05-14T07:22:39.046Z,72.30
2023-05-14T07:25:05.545Z,71.90
2023-05-14T07:27:31.946Z,71.60
2023-05-14T07:29:58.407Z,71.40
2023-05-14T07:32:25.020Z,71.10
2023-05-14T07:34:51.637Z,70.70
2023-05-14T07:37:18.065Z,70.30
2023-05-14T07:39:44.492Z,69.80
2023-05-14T07:42:11.675Z,69.30
2023-05-14T07:44:40.105Z,69.00
2023-05-14T07:47:06.956Z,68.80
2023-05-14T07:49:33.447Z,68.50
2023-05-14T07:51:59.860Z,67.70
2023-05-14T07:54:26.236Z,67.20
2023-05-14T07:56:52.669Z,67.10
2023-05-14T07:59:19.066Z,66.70
2023-05-14T08:01:45.596Z,66.20
2023-05-14T08:04:12.301Z,65.70
2023-05-14T08:06:38.815Z,65.30
2023-05-14T08:09:05.268Z,64.90
2023-05-14T08:11:31.672Z,64.40
2023-05-14T08:13:58.124Z,63.90
2023-05-14T08:16:24.608Z,63.50
2023-05-14T08:18:51.140Z,63.20
2023-05-14T08:21:17.542Z,62.70
2023-05-14T08:23:43.961Z,62.70
2023-05-14T08:26:10.429Z,63.00
2023-05-14T08:28:36.964Z,63.00
2023-05-14T08:31:03.517Z,62.90
2023-05-14T08:33:29.914Z,63.10
2023-05-14T08:35:56.364Z,63.00
2023-05-14T08:38:22.840Z,62.80
2023-05-14T08:40:49.286Z,62.80
2023-05-14T08:43:15.825Z,62.60
2023-05-14T08:45:42.271Z,62.50
2023-05-14T08:48:08.847Z,62.10
2023-05-14T08:50:35.577Z,61.80
2023-05-14T08:53:02.050Z,61.60
2023-05-14T08:55:28.478Z,60.90
2023-05-14T08:57:54.850Z,60.60
2023-05-14T09:00:21.328Z,60.30
2023-05-14T09:02:47.989Z,60.10
2023-05-14T09:05:14.414Z,60.10
2023-05-14T09:07:40.819Z,60.20
2023-05-14T09:10:07.320Z,60.00
2023-05-14T09:12:33.775Z,59.40
2023-05-14T09:15:00.233Z,59.10
2023-05-14T09:17:26.713Z,58.70
2023-05-14T09:19:53.348Z,58.10
2023-05-14T09:22:20.930Z,57.80
2023-05-14T09:24:47.382Z,58.00
2023-05-14T09:27:13.831Z,58.30
2023-05-14T09:29:40.250Z,57.90
2023-05-14T09:32:07.057Z,57.40
2023-05-14T09:34:33.732Z,57.10
2023-05-14T09:37:00.211Z,56.40
2023-05-14T09:39:26.690Z,55.00
2023-05-14T09:41:53.187Z,54.90
2023-05-14T09:44:19.593Z,54.70
2023-05-14T09:46:46.274Z,54.00
2023-05-14T09:49:12.744Z,54.50
2023-05-14T09:51:39.200Z,54.40
2023-05-14T09:54:05.661Z,53.20
2023-05-14T09:56:32.083Z,52.30
2023-05-14T09:58:58.518Z,51.90
2023-05-14T10:01:24.987Z,51.20
2023-05-14T10:03:51.494Z,50.90
2023-05-14T10:06:18.006Z,50.10
2023-05-14T10:08:44.418Z,49.20
2023-05-14T10:11:10.869Z,48.70
2023-05-14T10:13:37.262Z,48.80
2023-05-14T10:16:03.666Z,48.50
2023-05-14T10:18:30.090Z,48.20
2023-05-14T10:20:56.574Z,46.90
2023-05-14T10:23:22.980Z,46.80
2023-05-14T10:25:49.443Z,46.80
2023-05-14T10:28:16.127Z,46.90
2023-05-14T10:30:42.552Z,46.70
2023-05-14T10:33:09.076Z,46.60
2023-05-14T10:35:35.483Z,45.70
2023-05-14T10:38:01.926Z,45.30
2023-05-14T10:40:28.382Z,45.00
2023-05-14T10:42:54.777Z,44.90
2023-05-14T10:45:21.245Z,44.70
2023-05-14T10:47:47.749Z,45.00
2023-05-14T10:50:14.194Z,44.90
2023-05-14T10:52:40.678Z,44.70
2023-05-14T10:55:07.134Z,44.70
2023-05-14T10:57:33.562Z,44.30
2023-05-14T11:00:00.110Z,43.60
2023-05-14T11:02:26.617Z,43.70
2023-05-14T11:04:53.076Z,43.40
2023-05-14T11:07:19.546Z,42.80
2023-05-14T11:09:46.170Z,42.70
2023-05-14T11:12:12.579Z,42.70
2023-05-14T11:14:39.011Z,43.00
2023-05-14T11:17:05.451Z,42.80
2023-05-14T11:19:31.918Z,42.60
2023-05-14T11:21:58.310Z,42.60
2023-05-14T11:24:27.020Z,42.90
2023-05-14T11:26:53.459Z,42.90
2023-05-14T11:29:19.842Z,42.20
2023-05-14T11:31:46.383Z,41.60
2023-05-14T11:34:12.870Z,41.50
2023-05-14T11:36:39.295Z,41.10
2023-05-14T11:39:05.676Z,40.90
2023-05-14T11:41:32.131Z,41.30
2023-05-14T11:43:58.643Z,40.30
2023-05-14T11:46:25.159Z,40.30
2023-05-14T11:48:51.575Z,40.10
2023-05-14T11:51:18.009Z,40.90
2023-05-14T11:53:44.491Z,41.30
2023-05-14T11:56:10.936Z,41.20
2023-05-14T11:58:37.392Z,40.30
2023-05-14T12:01:03.890Z,40.20
2023-05-14T12:03:30.482Z,40.20
2023-05-14T12:05:57.192Z,40.60
2023-05-14T12:08:23.673Z,40.70
2023-05-14T12:10:50.095Z,40.30
2023-05-14T12:13:16.515Z,40.00
2023-05-14T12:15:43.034Z,40.30
2023-05-14T12:18:22.937Z,39.90
2023-05-14T12:20:50.795Z,39.80
2023-05-14T12:23:17.268Z,40.00
2023-05-14T12:25:43.646Z,39.50
2023-05-14T12:28:10.088Z,37.40
2023-05-14T12:30:36.626Z,37.60
2023-05-14T12:33:03.463Z,37.90
2023-05-14T12:35:29.866Z,37.80
2023-05-14T12:37:56.264Z,38.00
2023-05-14T12:40:22.874Z,38.40
2023-05-14T12:42:49.391Z,38.30
2023-05-14T12:45:15.769Z,38.30
2023-05-14T12:47:42.193Z,38.20
2023-05-14T12:50:08.594Z,38.00
2023-05-14T12:52:39.375Z,37.50
2023-05-14T12:55:06.294Z,37.40
2023-05-14T12:57:32.724Z,37.40
2023-05-14T12:59:59.181Z,37.70
2023-05-14T13:02:25.604Z,38.00
2023-05-14T13:04:52.012Z,38.10
2023-05-14T13:07:18.433Z,37.80
2023-05-14T13:09:44.933Z,38.00
2023-05-14T13:12:11.402Z,36.80
2023-05-14T13:14:37.796Z,37.20
2023-05-14T13:17:04.254Z,37.60
2023-05-14T13:19:30.700Z,36.90
2023-05-14T13:21:57.122Z,36.60
2023-05-14T13:24:23.495Z,36.60
2023-05-14T13:26:49.929Z,36.70
2023-05-14T13:29:16.433Z,36.70
2023-05-14T13:31:42.858Z,36.00
2023-05-14T13:34:09.303Z,35.50
2023-05-14T13:36:35.734Z,36.00
2023-05-14T13:39:02.193Z,35.60
2023-05-14T13:41:28.617Z,35.80
2023-05-14T13:43:55.045Z,35.20
2023-05-14T13:46:21.520Z,35.60
2023-05-14T13:48:47.987Z,35.70
2023-05-14T13:51:14.392Z,36.10
2023-05-14T13:53:40.796Z,36.30
2023-05-14T13:56:07.245Z,36.10
2023-05-14T13:58:33.722Z,35.60
2023-05-14T14:01:00.162Z,36.00
2023-05-14T14:03:26.640Z,35.70
2023-05-14T14:05:53.030Z,35.70
2023-05-14T14:08:23.994Z,35.80
2023-05-14T14:10:50.886Z,35.90
2023-05-14T14:13:17.300Z,36.40
2023-05-14T14:15:43.814Z,36.20
2023-05-14T14:18:10.311Z,36.10
2023-05-14T14:20:37.093Z,36.40
2023-05-14T14:23:03.498Z,36.20
2023-05-14T14:25:29.898Z,36.20
2023-05-14T14:27:56.395Z,35.60
2023-05-14T14:30:22.895Z,35.70
2023-05-14T14:32:49.447Z,35.60
2023-05-14T14:35:16.032Z,35.20
2023-05-14T14:37:42.393Z,34.90
2023-05-14T14:40:08.790Z,34.60
2023-05-14T14:42:35.225Z,34.50
2023-05-14T14:45:01.678Z,34.60
2023-05-14T14:47:28.173Z,34.40
2023-05-14T14:49:54.641Z,34.40
2023-05-14T14:52:21.079Z,34.30
2023-05-14T14:54:47.530Z,34.30
2023-05-14T14:57:13.970Z,34.30
2023-05-14T14:59:40.407Z,34.20
2023-05-14T15:02:07.225Z,34.50
2023-05-14T15:04:33.666Z,35.00
2023-05-14T15:07:00.150Z,35.10
2023-05-14T15:09:26.606Z,35.10
2023-05-14T15:11:53.056Z,34.70
2023-05-14T15:14:19.513Z,34.20
2023-05-14T15:16:47.675Z,34.20
2023-05-14T15:19:15.377Z,34.30
2023-05-14T15:21:41.837Z,34.40
2023-05-14T15:24:08.271Z,34.10
2023-05-14T15:26:34.733Z,33.80
2023-05-14T15:29:01.162Z,33.90
2023-05-14T15:31:27.609Z,34.30
2023-05-14T15:33:54.075Z,34.60
2023-05-14T15:36:20.488Z,35.10
2023-05-14T15:38:47.113Z,35.10
2023-05-14T15:41:13.495Z,35.30
2023-05-14T15:43:40.226Z,35.40
2023-05-14T15:46:06.688Z,35.60
2023-05-14T15:48:33.276Z,35.20
2023-05-14T15:50:59.700Z,34.70
2023-05-14T15:53:26.122Z,34.40
2023-05-14T15:55:52.553Z,34.40
2023-05-14T15:58:19.008Z,34.50
2023-05-14T16:00:45.396Z,35.10
2023-05-14T16:03:11.836Z,35.40
2023-05-14T16:05:38.372Z,35.60
2023-05-14T16:08:04.767Z,36.00
2023-05-14T16:10:31.181Z,36.30
2023-05-14T16:12:57.600Z,36.60
2023-05-14T16:15:24.023Z,36.70
2023-05-14T16:17:50.455Z,36.70
2023-05-14T16:20:16.915Z,36.60
2023-05-14T16:22:43.400Z,36.00
2023-05-14T16:25:09.862Z,35.60
2023-05-14T16:27:36.593Z,35.70
2023-05-14T16:30:03.098Z,35.90
2023-05-14T16:32:29.551Z,35.50
2023-05-14T16:34:56.049Z,35.50
2023-05-14T16:37:22.450Z,35.60
2023-05-14T16:39:48.845Z,35.60
2023-05-14T16:42:15.280Z,36.20
2023-05-14T16:44:41.695Z,35.80
2023-05-14T16:47:08.138Z,36.40
2023-05-14T16:49:34.574Z,36.30
2023-05-14T16:52:01.045Z,36.40
2023-05-14T16:54:27.481Z,36.10
2023-05-14T16:56:53.917Z,36.10
2023-05-14T16:59:20.307Z,36.30
2023-05-14T17:01:46.845Z,36.40
2023-05-14T17:04:13.341Z,36.40
2023-05-14T17:06:39.798Z,36.80
2023-05-14T17:09:06.570Z,36.90
2023-05-14T17:11:33.002Z,37.00
2023-05-14T17:13:59.408Z,37.50
2023-05-14T17:16:25.843Z,37.90
2023-05-14T17:18:52.339Z,38.20
2023-05-14T17:21:18.774Z,38.60
2023-05-14T17:23:45.153Z,39.00
2023-05-14T17:26:11.601Z,39.00
2023-05-14T17:28:38.055Z,39.20
2023-05-14T17:31:04.564Z,39.50
2023-05-14T17:33:31.130Z,40.00
2023-05-14T17:35:57.574Z,40.40
2023-05-14T17:38:24.038Z,40.70
2023-05-14T17:40:50.417Z,41.00
2023-05-14T17:43:16.868Z,41.00
2023-05-14T17:45:53.983Z,41.10
2023-05-14T17:48:21.067Z,41.50
2023-05-14T17:50:47.516Z,41.80
2023-05-14T17:53:13.943Z,42.00
2023-05-14T17:55:40.367Z,42.20
2023-05-14T17:58:06.766Z,42.40
2023-05-14T18:00:33.271Z,42.90
2023-05-14T18:02:59.850Z,43.20
2023-05-14T18:05:26.477Z,43.40
2023-05-14T18:07:52.990Z,43.60
2023-05-14T18:10:19.383Z,44.00
2023-05-14T18:12:45.823Z,44.30
2023-05-14T18:15:12.257Z,44.80
2023-05-14T18:17:38.753Z,45.10
2023-05-14T18:20:05.211Z,45.30
2023-05-14T18:22:31.668Z,45.50
2023-05-14T18:24:58.113Z,45.90
2023-05-14T18:27:24.521Z,46.40
2023-05-14T18:29:50.955Z,46.80
2023-05-14T18:32:17.423Z,47.40
2023-05-14T18:34:43.902Z,48.50
2023-05-14T18:37:10.267Z,49.00
2023-05-14T18:39:36.784Z,50.00
2023-05-14T18:42:03.382Z,51.90
2023-05-14T18:44:29.844Z,54.30
2023-05-14T18:46:56.363Z,55.40
2023-05-14T18:49:22.824Z,56.10
2023-05-14T18:51:49.353Z,57.60
2023-05-14T18:54:15.799Z,59.90
2023-05-14T18:56:42.310Z,61.30
2023-05-14T18:59:08.754Z,62.70
2023-05-14T19:01:35.170Z,63.50
2023-05-14T19:04:03.848Z,64.70
2023-05-14T19:06:31.734Z,64.90
2023-05-14T19:08:58.156Z,65.20
2023-05-14T19:11:24.590Z,65.50
2023-05-14T19:13:51.067Z,66.20
2023-05-14T19:16:17.539Z,66.30
2023-05-14T19:18:43.961Z,66.40
2023-05-14T19:21:10.368Z,66.40
2023-05-14T19:23:36.810Z,66.60
2023-05-14T19:26:03.494Z,66.80
2023-05-14T19:28:29.946Z,67.00
2023-05-14T19:30:56.359Z,67.10
2023-05-14T19:33:22.738Z,67.80
2023-05-14T19:35:49.163Z,68.40
2023-05-14T19:38:15.663Z,69.20
2023-05-14T19:40:43.744Z,69.90
2023-05-14T19:43:11.515Z,70.50
2023-05-14T19:45:37.972Z,70.90
2023-05-14T19:48:04.529Z,71.70
2023-05-14T19:50:30.991Z,72.10
2023-05-14T19:52:57.431Z,72.50
2023-05-14T19:55:24.031Z,72.50
2023-05-14T19:57:50.692Z,72.80
2023-05-14T20:00:17.146Z,72.80
2023-05-14T20:02:43.680Z,73.00
2023-05-14T20:05:10.114Z,73.10
2023-05-14T20:07:37.769Z,73.50
2023-05-14T20:10:05.376Z,73.80
2023-05-14T20:12:31.792Z,73.90
2023-05-14T20:14:58.215Z,74.00
2023-05-14T20:17:24.623Z,74.20
2023-05-14T20:19:51.113Z,74.50
2023-05-14T20:22:17.496Z,74.60
2023-05-14T20:24:43.926Z,75.00
2023-05-14T20:27:10.398Z,75.30
2023-05-14T20:29:36.844Z,75.80
2023-05-14T20:32:03.460Z,75.80
2023-05-14T20:34:29.913Z,75.60
2023-05-14T20:36:56.320Z,75.60
2023-05-14T20:39:22.739Z,75.80
2023-05-14T20:41:49.183Z,75.70
2023-05-14T20:44:16.415Z,75.70
2023-05-14T20:46:43.850Z,76.00
2023-05-14T20:49:10.327Z,75.90
2023-05-14T20:51:36.780Z,75.80
2023-05-14T20:54:03.390Z,75.60
2023-05-14T20:56:29.772Z,75.30
2023-05-14T20:58:56.189Z,75.10
2023-05-14T21:01:22.720Z,75.10
2023-05-14T21:03:49.267Z,75.00
2023-05-14T21:06:15.798Z,74.90
2023-05-14T21:08:42.181Z,74.70
2023-05-14T21:11:08.614Z,74.50
2023-05-14T21:13:35.062Z,74.30
2023-05-14T21:16:01.526Z,74.00
2023-05-14T21:18:28.066Z,73.70
2023-05-14T21:20:54.566Z,73.20
2023-05-14T21:23:20.964Z,72.80
2023-05-14T21:25:47.400Z,72.50
2023-05-14T21:28:13.855Z,72.10
2023-05-14T21:30:40.320Z,71.90
2023-05-14T21:33:06.799Z,71.80
2023-05-14T21:35:33.244Z,71.50
2023-05-14T21:37:59.696Z,71.40
2023-05-14T21:40:26.154Z,71.50
2023-05-14T21:42:52.602Z,71.30
2023-05-14T21:45:19.413Z,71.20
2023-05-14T21:47:46.641Z,71.00
2023-05-14T21:50:13.136Z,70.70
2023-05-14T21:52:39.598Z,70.70
2023-05-14T21:55:06.025Z,70.80
2023-05-14T21:57:34.559Z,71.00
2023-05-14T22:00:01.191Z,71.40
2023-05-14T22:02:27.581Z,71.20
2023-05-14T22:04:54.029Z,71.30
2023-05-14T22:07:20.494Z,71.30
2023-05-14T22:09:46.969Z,71.40
2023-05-14T22:12:13.407Z,72.00
2023-05-14T22:14:39.852Z,71.60
2023-05-14T22:17:06.434Z,71.80
2023-05-14T22:19:33.012Z,72.00
2023-05-14T22:21:59.472Z,72.00
2023-05-14T22:24:25.941Z,71.80
2023-05-14T22:26:52.404Z,71.80
2023-05-14T22:29:18.788Z,72.20
2023-05-14T22:31:45.262Z,72.40
2023-05-14T22:34:11.859Z,72.60
2023-05-14T22:36:38.239Z,72.80
2023-05-14T22:39:04.712Z,72.90
2023-05-14T22:41:31.173Z,72.80
2023-05-14T22:43:57.642Z,72.60
2023-05-14T22:46:24.150Z,72.60
2023-05-14T22:48:50.564Z,72.60
2023-05-14T22:51:17.028Z,72.50
2023-05-14T22:53:43.434Z,72.40
2023-05-14T22:56:09.817Z,72.40
2023-05-14T22:58:36.208Z,72.30
2023-05-14T23:01:02.649Z,72.20
2023-05-14T23:03:29.115Z,72.20
2023-05-14T23:05:55.585Z,72.20
2023-05-14T23:08:21.999Z,72.00
2023-05-14T23:38:10.946Z,72.20
2023-05-14T23:40:37.728Z,72.20
2023-05-14T23:43:04.221Z,72.30
2023-05-14T23:45:30.656Z,72.40
2023-05-14T23:47:57.064Z,72.30
2023-05-14T23:50:23.545Z,72.40
2023-05-14T23:52:49.992Z,72.50
2023-05-14T23:55:16.499Z,72.50
2023-05-14T23:57:42.931Z,72.20
